METAR Data
IDs: Format: Raw Decoded Include TAF

Data at: 1519 UTC 25 Jan 2020

KBEH 251453Z AUTO 22007KT 5SM BR OVC006 01/00 A2979 RMK AO2 SLP095 T00110000 51006
KBEH 251353Z AUTO 22006KT 7SM OVC007 01/00 A2979 RMK AO2 SLP095 T00110000
KBEH 251253Z AUTO 21004KT 5SM BR OVC005 01/00 A2978 RMK AO2 SLP091 T00110000
KBEH 251223Z AUTO 19007KT 5SM BR OVC005 01/00 A2978 RMK AO2 T00110000
KBEH 251153Z AUTO 20006KT 5SM BR OVC004 01/00 A2978 RMK AO2 SLP088 60000 70026 T00110000 10028 20011 55002
KBEH 251053Z AUTO 19007KT 4SM BR OVC003 02/01 A2977 RMK AO2 UPB27E41 SLP087 P0000 T00170006
KBEH 251042Z AUTO 20006KT 3SM BR OVC003 02/01 A2977 RMK AO2 UPB27E41 P0000 T00170006
KBEH 251033Z AUTO 20005KT 2 1/2SM UP BR OVC003 02/01 A2977 RMK AO2 UPB27 P0000 T00170006
KBEH 250953Z AUTO 20008KT 5SM BR OVC004 02/01 A2978 RMK AO2 SLP089 T00170006
KBEH 250853Z AUTO 19006KT 6SM BR OVC005 02/01 A2978 RMK AO2 SLP090 T00170006 53000
KBEH 250753Z AUTO 19005KT 6SM BR OVC006 02/01 A2979 RMK AO2 SLP092 T00220011
KBEH 250746Z AUTO 19005KT 5SM BR OVC004 02/01 A2978 RMK AO2 T00220011
KBEH 250738Z AUTO 20006KT 2SM BR OVC004 02/01 A2978 RMK AO2 T00220011
KBEH 250726Z AUTO 19006KT 1 1/4SM BR OVC004 02/01 A2978 RMK AO2 T00220011
KBEH 250721Z AUTO 18005KT 2 1/2SM BR BKN004 OVC007 02/01 A2978 RMK AO2 T00220011
KBEH 250653Z AUTO 22007KT 7SM OVC006 02/01 A2977 RMK AO2 SLP088 T00220011
KBEH 250602Z AUTO 23009KT 8SM OVC005 02/01 A2978 RMK AO2 CIG 003V008 T00220011
KBEH 250553Z AUTO 22011KT 7SM OVC003 03/01 A2978 RMK AO2 CIG 002V006 SLP090 60008 T00280011 10028 20022 58000
KBEH 250542Z AUTO 22008KT 4SM BR OVC003 02/02 A2978 RMK AO2 T00220017
KBEH 250534Z AUTO 23008KT 2 1/2SM BR OVC003 02/02 A2978 RMK AO2 T00220017
KBEH 250524Z AUTO 22006KT 3SM BR OVC004 02/02 A2978 RMK AO2 T00220017
KBEH 250453Z AUTO 21003KT 5SM BR BKN006 OVC011 02/02 A2978 RMK AO2 SLP092 T00220017 400330022
KBEH 250436Z AUTO 22004KT 7SM BKN005 OVC011 02/02 A2979 RMK AO2 CIG 004V008 T00220017
KBEH 250353Z AUTO 21006KT 4SM BR BKN004 OVC010 03/02 A2978 RMK AO2 CIG 003V008 SLP091 T00280017
KBEH 250338Z AUTO 21004KT 4SM BR BKN005 OVC012 02/02 A2978 RMK AO2 CIG 003V008 T00220017
KBEH 250328Z AUTO 20004KT 4SM BR SCT005 OVC012 03/02 A2978 RMK AO2 T00280017
KBEH 250318Z AUTO 20004KT 3SM BR BKN011 BKN016 OVC029 03/02 A2978 RMK AO2 T00280017
KBEH 250253Z AUTO 00000KT 3SM BR FEW011 BKN016 OVC025 03/02 A2978 RMK AO2 RAE09UPB09E37 SLP092 P0002 60008 T00280017 51001
KBEH 250249Z AUTO 18003KT 3SM BR FEW003 BKN016 OVC023 03/02 A2978 RMK AO2 RAE09UPB09E37 P0002
KBEH 250235Z AUTO 18003KT 2SM UP BR SCT003 BKN012 OVC019 02/02 A2978 RMK AO2 RAE09UPB09 P0002 T00220017
KBEH 250220Z AUTO 00000KT 1 3/4SM UP BR SCT003 SCT008 OVC013 03/02 A2978 RMK AO2 RAE09UPB09 P0002 T00280022
KBEH 250212Z AUTO 00000KT 2 1/2SM UP BR BKN003 BKN008 OVC013 03/02 A2978 RMK AO2 RAE09UPB09 P0001 T00280022
KBEH 250204Z AUTO 19003KT 3SM -RA BR SCT003 BKN008 OVC013 03/02 A2979 RMK AO2 P0001 T00280017
KBEH 250153Z AUTO 21003KT 2 1/2SM -RA BR BKN003 OVC011 02/02 A2978 RMK AO2 UPE32B48E52RAB32 SLP092 P0003 T00220017
KBEH 250139Z AUTO 00000KT 2 1/2SM -RA BR BKN003 OVC015 03/02 A2979 RMK AO2 UPE32RAB32 P0002 T00280022
KBEH 250127Z AUTO 00000KT 3SM UP BR BKN003 BKN013 OVC019 03/02 A2979 RMK AO2 P0001 T00280022
KBEH 250119Z AUTO 00000KT 3SM UP BR BKN005 BKN010 OVC015 03/02 A2979 RMK AO2 P0001 T00280022
KBEH 250111Z AUTO 17003KT 3SM UP BR SCT005 BKN010 OVC015 03/02 A2979 RMK AO2 P0000 T00280017
KBEH 250053Z AUTO 17003KT 2 1/2SM UP BR BKN005 BKN011 OVC016 03/02 A2980 RMK AO2 RAE2357B07E37UPB2357E07B17 SLP095 P0003 T00280017
KBEH 250045Z AUTO 00000KT 2SM UP BR SCT004 BKN015 OVC032 03/02 A2979 RMK AO2 RAE2357B07E37UPB2357E07B17 P0002 T00280017
KBEH 250024Z AUTO 00000KT 2 1/2SM UP BR BKN004 OVC016 03/02 A2979 RMK AO2 RAE2357B07E17UPB2357E07B17 P0001 T00280017
KBEH 250020Z AUTO 00000KT 3SM UP BR SCT004 BKN016 OVC022 03/02 A2979 RMK AO2 RAE2357B07E17UPB2357E07B17 P0001 T00280022
KBEH 250014Z AUTO 00000KT 2SM -RA BR BKN004 BKN014 OVC036 03/02 A2979 RMK AO2 RAE2357B07UPB2357E07 P0001 T00280022
KBEH 250004Z AUTO 15003KT 1 1/4SM UP BR BKN004 OVC036 02/02 A2979 RMK AO2 RAE2357UPB2357 P0000 T00220017
KBEH 250002Z AUTO 14003KT 1 3/4SM UP BR SCT004 BKN016 OVC036 02/02 A2979 RMK AO2 RAE2357UPB2357 P0000 T00220017
KBEH 242353Z AUTO 00000KT 2 1/2SM -RA BR SCT004 SCT016 OVC033 03/02 A2978 RMK AO2 RAE2255B25UPB2255E25 SLP091 P0003 60013 T00280022 10033 20022 55004
KBEH 242344Z AUTO 00000KT 2 1/2SM -RA BR SCT004 OVC020 03/02 A2978 RMK AO2 RAE2255B25UPB2255E25 P0002 T00280017
KBEH 242327Z AUTO 12003KT 3SM -RA BR BKN006 OVC011 03/02 A2979 RMK AO2 RAE2255B25UPB2255E25 P0001 T00280017
KBEH 242320Z AUTO 14005KT 2 1/2SM UP BR BKN006 OVC011 03/02 A2980 RMK AO2 RAE2255UPB2255 P0001 T00280017
KBEH 242305Z AUTO 11004KT 1 3/4SM UP BR SCT004 BKN011 OVC016 02/02 A2978 RMK AO2 RAE2255UPB2255 P0000 T00220017
KBEH 242301Z AUTO 11003KT 3SM UP BR BKN004 OVC011 03/02 A2978 RMK AO2 RAE2255UPB2255 P0000 T00280017
KBEH 242253Z AUTO 09003KT 2 1/2SM -RA BR BKN004 OVC013 03/02 A2978 RMK AO2 UPB2154E16B33E36RAB2157E10B16E33B36 SLP089 P0003 T00280017
KBEH 242242Z AUTO 00000KT 1 3/4SM -RA BR OVC004 03/02 A2978 RMK AO2 UPB2154E16B33E36RAB2157E10B16E33B36 P0002 T00280017
KBEH 242234Z AUTO 08003KT 2SM UP BR OVC004 03/02 A2978 RMK AO2 UPB2154E16B33RAB2157E10B16E33 P0002 T00280017
KBEH 242211Z AUTO 00000KT 2 1/2SM UP BR BKN005 OVC011 03/02 A2978 RMK AO2 UPB2154RAB2157E10 P0001 T00280022
KBEH 242153Z AUTO 10004KT 3SM BR OVC005 03/02 A2979 RMK AO2 RAE14 CIG 004V008 SLP095 P0001 T00280017
KBEH 242111Z AUTO 07003KT 3SM -RA BR BKN006 OVC011 03/02 A2979 RMK AO2 P0001 T00330022
KBEH 242053Z AUTO 10004KT 2 1/2SM -RA BR BKN005 OVC011 03/02 A2980 RMK AO2 SLP096 P0002 60006 T00330017 56021
KBEH 242036Z AUTO 10004KT 3SM -RA BR OVC005 03/02 A2980 RMK AO2 P0002 T00330022
KBEH 242021Z AUTO 07003KT 2 1/2SM -RA BR OVC006 03/02 A2979 RMK AO2 P0002 T00330022
KBEH 242009Z AUTO 09003KT 3SM -RA BR OVC006 03/02 A2980 RMK AO2 P0001 T00330022
KBEH 241953Z AUTO 11005KT 2 1/2SM -RA BR OVC006 03/02 A2981 RMK AO2 SLP099 P0002 T00330022
KBEH 241945Z AUTO 10004KT 3SM -RA BR BKN006 OVC011 03/02 A2981 RMK AO2 P0002 T00330022
KBEH 241937Z AUTO 11004KT 2 1/2SM -RA BR BKN006 OVC011 03/02 A2981 RMK AO2 P0002 T00330022
KBEH 241853Z AUTO 11006KT 4SM -RA BR OVC007 03/02 A2982 RMK AO2 UPB08E13 SLP104 P0002 T00330022
KBEH 241806Z AUTO 12007KT 3SM -RA BR OVC007 03/02 A2985 RMK AO2 P0001 T00280017
KBEH 241753Z AUTO 12007KT 2 1/2SM -RA BR OVC006 03/02 A2986 RMK AO2 UPE18RAB1659 SLP117 P0004 60005 T00280017 10028 20022 58012
KBEH 241653Z AUTO 11006KT 2SM UP BR OVC005 03/02 A2988 RMK AO2 UPB15E28B50 SLP123 P0000 T00280017
KBEH 241648Z AUTO 11006KT 2 1/2SM BR OVC005 03/02 A2988 RMK AO2 UPB15E28 P0000
KBEH 241640Z AUTO 11006KT 1 3/4SM BR OVC005 03/02 A2988 RMK AO2 UPB15E28 P0000 T00280017
KBEH 241618Z AUTO 11007KT 1SM UP BR OVC005 03/02 A2989 RMK AO2 UPB15 P0000 T00280017
KBEH 241600Z AUTO 11007KT 1 1/2SM BR OVC006 03/02 A2989 RMK AO2 T00280017
KBEH 241553Z AUTO 12008KT 2SM BR OVC006 03/01 A2990 RMK AO2 RAB11E20B41E52UPB20E41 SLP129 P0001 T00280011
KBEH 241520Z AUTO 11008KT 2SM UP BR OVC007 03/01 A2990 RMK AO2 RAB11E20UPB20 P0000 T00280011
KBEH 241453Z AUTO 12009KT 4SM BR OVC007 03/01 A2990 RMK AO2 SLP132 T00280011 56005
KBEH 241431Z AUTO 12010KT 4SM BR OVC008 03/01 A2990 RMK AO2 T00280011
KBEH 241424Z AUTO 11008KT 2 1/2SM BR OVC008 03/01 A2990 RMK AO2 T00280011
KBEH 241353Z AUTO 12010KT 4SM BR OVC008 03/01 A2990 RMK AO2 SLP132 T00280011
KBEH 241253Z AUTO 12008KT 8SM OVC008 03/01 A2991 RMK AO2 SLP134 T00280011
KBEH 241249Z AUTO 12009KT 8SM OVC008 03/01 A2992 RMK AO2 CIG 007V011
KBEH 241153Z AUTO 12008KT 8SM OVC013 03/01 A2991 RMK AO2 UPB02E26 SLP134 P0000 60005 70007 T00280006 10028 20022 58003
KBEH 241150Z AUTO 11009KT 8SM OVC013 03/01 A2991 RMK AO2 UPB02E26 P0000
KBEH 241053Z AUTO 12010KT 9SM OVC017 03/00 A2992 RMK AO2 SLP136 T00280000
KBEH 240953Z AUTO 10008KT 9SM OVC021 02/01 A2992 RMK AO2 UPE09 SLP137 P0000 T00220006
KBEH 240853Z AUTO 10009KT 6SM UP BR OVC022 02/00 A2994 RMK AO2 RAB03E07B42E51 SLP145 P0002 60005 T00220000 58023
KBEH 240811Z AUTO 09008KT 7SM UP BKN028 OVC035 02/00 A2996 RMK AO2 RAB03E07 P0001 T00220000
KBEH 240753Z AUTO 10008KT 6SM UP BR BKN030 OVC035 02/00 A2997 RMK AO2 UPE15B38RAB15E38 SLP153 P0002 T00220000
KBEH 240653Z AUTO 10008KT 6SM UP BR SCT029 BKN035 OVC048 02/00 A2999 RMK AO2 RAB01E12 SLP162 P0001 T00220000
KBEH 240623Z AUTO 11009KT 6SM UP BR BKN026 OVC035 02/00 A3000 RMK AO2 RAB01E12 P0001 T00220000
KBEH 240553Z AUTO 11008KT 7SM UP SCT031 OVC045 02/M01 A3001 RMK AO2 RAE19UPB00E09B19 SLP169 P0000 60001 T00221006 10033 20017 57007
KBEH 240551Z AUTO 11008KT 7SM UP FEW029 OVC045 02/M01 A3001 RMK AO2 RAE19UPB00E09B19 P0000
KBEH 240515Z AUTO 12009KT 8SM -RA BKN029 OVC036 03/M01 A3002 RMK AO2 UPB00E09 P0000 T00281011
KBEH 240453Z AUTO 13010KT 10SM -RA FEW029 OVC044 03/M02 A3003 RMK AO2 RAB40 SLP176 P0001 T00281017 400330000
KBEH 240353Z AUTO 11007KT 10SM BKN075 OVC100 03/M02 A3003 RMK AO2 SLP176 T00281022